Time;durP1;ratioP1;P1;durP2;ratioP2;P2;SDS_P1;SDS_P2;PMS_P1;PMS_P2;Temp;Humidity;BMP_temperature;BMP_pressure;BME280_temperature;BME280_humidity;BME280_pressure;Samples;Min_cycle;Max_cycle;Signal;HPM_P1;HPM_P2
2020/12/13 00:00:32;;;;;;;73.57;29.10;;;8.00;99.90;;;8.96;96.50;99553.19;4997617;28;20045;-80
2020/12/13 00:02:59;;;;;;;77.85;29.35;;;8.00;99.90;;;8.95;96.71;99557.19;4997508;28;20058;-83
2020/12/13 00:05:26;;;;;;;79.45;32.08;;;8.00;99.90;;;8.95;96.62;99558.00;4997758;28;20030;-82
2020/12/13 00:07:53;;;;;;;75.43;28.58;;;8.00;99.90;;;9.02;96.61;99559.28;4995940;28;20042;-82
2020/12/13 00:10:22;;;;;;;80.95;29.88;;;8.00;99.90;;;9.02;96.54;99567.63;4998117;28;20030;-80
2020/12/13 00:12:48;;;;;;;84.93;29.45;;;8.00;99.90;;;9.00;96.49;99566.00;4997660;28;20081;-83
2020/12/13 00:15:14;;;;;;;82.30;31.67;;;8.10;99.90;;;8.98;96.26;99557.25;4996947;28;20140;-81
2020/12/13 00:17:40;;;;;;;79.15;30.48;;;8.00;99.90;;;9.00;96.38;99570.78;4997601;28;20049;-81
2020/12/13 00:20:07;;;;;;;84.32;30.48;;;8.00;99.90;;;9.06;96.59;99560.13;4996545;28;20387;-83
2020/12/13 00:22:33;;;;;;;86.40;32.38;;;8.00;99.90;;;9.08;96.02;99566.94;5001968;28;20038;-78
2020/12/13 00:25:00;;;;;;;78.55;31.33;;;8.10;99.90;;;9.09;96.01;99570.50;5011002;28;20125;-77
2020/12/13 00:27:26;;;;;;;68.50;28.65;;;8.10;99.90;;;9.08;95.97;99568.91;4998764;28;20031;-81
2020/12/13 00:29:51;;;;;;;87.30;31.63;;;8.00;99.90;;;8.97;96.16;99565.94;4995043;28;20545;-80
2020/12/13 00:32:17;;;;;;;81.40;29.63;;;8.00;99.90;;;9.02;96.34;99574.00;4995436;28;20026;-80
2020/12/13 00:34:43;;;;;;;73.30;28.33;;;8.00;99.90;;;8.97;96.13;99563.16;4995815;28;20030;-81
2020/12/13 00:37:09;;;;;;;75.32;28.05;;;8.10;99.90;;;9.05;96.09;99569.66;4995146;28;20045;-82
2020/12/13 00:39:38;;;;;;;87.20;30.08;;;8.10;99.90;;;8.99;96.23;99580.28;4995127;28;20034;-81
2020/12/13 00:42:05;;;;;;;77.10;30.20;;;8.10;99.90;;;8.97;96.65;99577.09;4995767;28;20114;-80
2020/12/13 00:44:32;;;;;;;77.70;29.20;;;8.10;99.90;;;9.04;96.22;99576.41;4995322;28;20430;-81
2020/12/13 00:46:58;;;;;;;81.97;30.55;;;8.10;99.90;;;9.05;96.07;99575.25;4993925;28;20367;-82
2020/12/13 00:49:23;;;;;;;82.43;29.30;;;8.10;99.90;;;9.10;96.12;99581.28;4999174;28;20027;-79
2020/12/13 00:51:49;;;;;;;84.10;29.15;;;8.10;99.90;;;9.07;96.27;99584.81;4998360;28;20049;-78
2020/12/13 00:54:15;;;;;;;87.25;29.67;;;8.10;99.90;;;9.17;95.42;99594.53;5002272;28;20029;-79
2020/12/13 00:56:44;;;;;;;76.38;29.38;;;8.20;99.90;;;9.19;95.53;99594.94;5002503;28;20034;-80
2020/12/13 00:59:10;;;;;;;74.97;28.55;;;8.10;99.90;;;9.09;95.98;99590.00;5002004;28;20057;-77
2020/12/13 01:01:37;;;;;;;81.03;28.75;;;8.20;99.90;;;9.13;96.02;99602.81;5002160;28;20112;-80
2020/12/13 01:04:03;;;;;;;67.50;27.40;;;8.20;99.90;;;9.20;95.80;99596.56;5002188;28;20034;-78
2020/12/13 01:06:30;;;;;;;71.88;28.30;;;8.20;99.90;;;9.16;95.81;99604.84;5000876;28;20061;-79
2020/12/13 01:08:55;;;;;;;73.35;27.63;;;8.20;99.90;;;9.18;95.38;99605.31;4998780;28;20100;-79
2020/12/13 01:11:39;;;;;;;67.97;28.40;;;8.20;99.90;;;9.13;96.02;99616.75;4998343;28;20026;-78
2020/12/13 01:14:05;;;;;;;77.95;28.75;;;8.20;99.90;;;9.08;96.03;99616.25;4999098;28;20109;-78
2020/12/13 01:16:32;;;;;;;64.85;27.38;;;8.20;99.90;;;9.07;96.03;99617.44;4998995;28;20533;-79
2020/12/13 01:18:59;;;;;;;65.05;26.05;;;8.10;99.90;;;9.05;96.47;99617.81;4998102;28;20045;-80
2020/12/13 01:21:28;;;;;;;73.15;27.67;;;8.10;99.90;;;9.07;96.33;99632.16;4998365;28;20023;-81
2020/12/13 01:23:56;;;;;;;73.05;26.80;;;8.10;99.90;;;9.09;96.05;99637.34;4998488;28;20060;-80
2020/12/13 01:26:25;;;;;;;78.55;29.08;;;8.10;99.90;;;9.01;96.23;99633.66;5000440;28;20045;-80
2020/12/13 01:28:52;;;;;;;71.40;27.73;;;8.10;99.90;;;9.08;96.13;99638.56;4998350;28;20025;-80
2020/12/13 01:31:22;;;;;;;76.53;28.85;;;8.10;99.90;;;9.06;96.21;99640.88;4998130;28;20031;-80
2020/12/13 01:33:51;;;;;;;79.88;30.10;;;8.10;99.90;;;9.05;96.46;99662.38;4998760;28;20027;-79
2020/12/13 01:36:22;;;;;;;83.13;30.08;;;8.10;99.90;;;9.08;95.72;99655.25;4996993;28;20026;-80
2020/12/13 01:38:50;;;;;;;73.25;29.20;;;8.10;99.90;;;9.02;96.08;99663.13;4999440;28;20034;-79
2020/12/13 01:41:17;;;;;;;70.93;28.92;;;8.10;99.90;;;8.98;95.94;99665.03;5001302;28;20080;-80
2020/12/13 01:44:05;;;;;;;64.15;28.77;;;8.10;99.90;;;8.98;96.15;99671.41;5000606;28;20037;-79
2020/12/13 01:46:33;;;;;;;68.65;28.75;;;8.10;99.90;;;9.03;95.91;99661.94;5000839;28;20035;-78
2020/12/13 01:49:08;;;;;;;77.32;30.88;;;8.10;99.90;;;8.97;95.68;99667.03;4999941;28;20076;-81
2020/12/13 01:54:15;;;;;;;76.43;29.73;;;8.00;99.90;;;8.98;95.95;99677.00;4998614;28;20486;-78
2020/12/13 01:56:48;;;;;;;76.68;30.73;;;8.00;99.90;;;8.88;96.51;99665.66;4996601;28;20034;-78
2020/12/13 01:59:18;;;;;;;71.00;27.75;;;8.00;99.90;;;9.00;95.84;99671.84;4997783;28;20026;-80
2020/12/13 02:01:53;;;;;;;76.30;31.23;;;8.00;99.90;;;9.00;95.82;99671.03;4997566;28;20105;-79
2020/12/13 02:04:22;;;;;;;76.32;30.42;;;8.00;99.90;;;8.95;96.10;99680.53;4996098;28;20084;-79
2020/12/13 02:06:54;;;;;;;80.53;30.58;;;8.00;99.90;;;8.97;95.78;99674.56;4996174;28;20343;-80
2020/12/13 02:09:25;;;;;;;75.05;31.10;;;8.00;99.90;;;8.93;95.80;99668.94;4997959;28;20034;-80
2020/12/13 02:11:51;;;;;;;74.38;31.10;;;8.00;99.90;;;8.95;95.80;99669.38;4997862;28;20046;-80
2020/12/13 02:14:19;;;;;;;74.03;31.08;;;8.00;99.90;;;8.91;96.12;99671.28;4997446;28;20030;-80
2020/12/13 02:16:53;;;;;;;72.13;30.08;;;8.00;99.90;;;8.95;96.36;99683.31;4995789;28;20443;-80
2020/12/13 02:19:21;;;;;;;75.40;30.92;;;8.00;99.90;;;8.99;95.95;99678.59;4996115;28;20453;-81
2020/12/13 02:21:51;;;;;;;67.50;28.00;;;8.00;99.90;;;8.97;95.80;99680.94;4997240;28;20109;-79
2020/12/13 02:24:20;;;;;;;76.47;31.33;;;8.00;99.90;;;9.01;95.69;99681.00;4997290;28;20030;-79
2020/12/13 02:26:48;;;;;;;75.13;31.70;;;8.00;99.90;;;9.06;95.76;99691.03;4997011;28;20467;-80
2020/12/13 02:29:14;;;;;;;74.03;29.33;;;8.00;99.90;;;8.99;95.83;99686.94;4997261;28;20114;-81
2020/12/13 02:31:40;;;;;;;73.18;30.25;;;8.00;99.90;;;8.99;96.16;99692.50;4997399;28;20057;-80
2020/12/13 02:34:07;;;;;;;71.18;29.63;;;8.00;99.90;;;8.91;96.35;99690.78;4997232;28;20050;-80
2020/12/13 02:36:34;;;;;;;75.65;28.70;;;8.00;99.90;;;8.95;96.31;99691.66;4996387;28;20030;-80
2020/12/13 02:39:04;;;;;;;74.32;29.77;;;8.00;99.90;;;8.88;96.70;99697.09;4997612;28;20109;-80
2020/12/13 02:41:30;;;;;;;76.45;29.95;;;8.00;99.90;;;8.86;96.79;99707.78;4997864;28;20081;-80
2020/12/13 02:43:56;;;;;;;80.40;30.33;;;8.00;99.90;;;8.86;96.79;99710.56;4997168;28;20073;-80
2020/12/13 02:46:21;;;;;;;72.00;30.17;;;8.00;99.90;;;8.90;96.63;99714.22;5002740;28;20035;-78
2020/12/13 02:48:48;;;;;;;72.78;29.83;;;8.00;99.90;;;8.85;96.72;99720.09;5008165;28;20036;-77
2020/12/13 02:51:14;;;;;;;69.82;28.30;;;8.10;99.90;;;8.91;96.30;99715.84;4999860;28;20030;-79
2020/12/13 02:53:40;;;;;;;75.60;29.23;;;8.10;99.90;;;8.92;96.28;99723.03;4996826;28;20039;-77
2020/12/13 02:56:06;;;;;;;76.30;30.33;;;8.10;99.90;;;8.85;96.75;99727.66;4996739;28;20041;-78
2020/12/13 02:58:32;;;;;;;70.35;30.20;;;8.10;99.90;;;8.91;96.74;99737.31;4996949;28;20367;-79
2020/12/13 03:00:58;;;;;;;69.03;28.00;;;8.00;99.90;;;8.88;96.54;99732.47;4997114;28;20023;-78
2020/12/13 03:03:24;;;;;;;73.22;31.67;;;8.00;99.90;;;8.85;96.54;99727.66;4996523;28;20038;-80
2020/12/13 03:05:49;;;;;;;79.75;31.10;;;8.00;99.90;;;8.82;97.38;99742.31;4997295;28;20475;-78
2020/12/13 03:08:15;;;;;;;74.88;28.88;;;8.10;99.90;;;8.90;96.88;99744.84;4997760;28;20062;-79
2020/12/13 03:10:41;;;;;;;72.45;27.77;;;8.10;99.90;;;8.94;96.38;99734.59;4996660;28;20022;-80
2020/12/13 03:13:07;;;;;;;83.10;30.88;;;8.10;99.90;;;8.94;96.16;99747.72;4997934;28;20513;-79
2020/12/13 03:15:33;;;;;;;79.28;30.33;;;8.10;99.90;;;8.95;96.29;99747.34;4997894;28;20102;-78
2020/12/13 03:17:58;;;;;;;86.85;31.67;;;8.10;99.90;;;8.97;96.56;99756.13;5006079;28;20038;-78
2020/12/13 03:20:24;;;;;;;80.63;30.25;;;8.00;99.90;;;8.91;96.52;99751.25;5014424;28;20034;-78
2020/12/13 03:22:50;;;;;;;89.68;31.77;;;8.00;99.90;;;8.94;96.87;99767.22;5014914;28;20077;-77
2020/12/13 03:25:16;;;;;;;77.68;30.50;;;8.00;99.90;;;8.91;96.78;99752.03;5003858;28;20061;-76
2020/12/13 03:27:43;;;;;;;76.35;30.15;;;8.00;99.90;;;8.93;96.86;99763.59;4996421;28;20157;-80
2020/12/13 03:30:09;;;;;;;78.35;30.88;;;8.10;99.90;;;8.97;96.88;99760.91;4994967;28;20212;-80
2020/12/13 03:32:36;;;;;;;78.85;30.20;;;8.10;99.90;;;8.89;96.86;99759.94;4995897;28;20030;-77
2020/12/13 03:35:04;;;;;;;80.85;31.35;;;8.10;99.90;;;8.89;96.96;99761.94;4995729;28;20026;-79
2020/12/13 03:37:31;;;;;;;75.15;30.88;;;8.10;99.90;;;8.94;96.75;99764.41;4994287;28;20474;-79
2020/12/13 03:39:56;;;;;;;77.80;31.10;;;8.10;99.90;;;8.94;96.46;99761.63;4996219;28;20034;-78
2020/12/13 03:42:22;;;;;;;79.65;31.30;;;8.10;99.90;;;8.91;96.54;99770.72;5000560;28;20459;-78
2020/12/13 03:44:49;;;;;;;82.00;31.77;;;8.10;99.90;;;8.91;96.46;99762.38;5006994;28;20046;-78
2020/12/13 03:47:15;;;;;;;83.30;31.92;;;8.10;99.90;;;8.93;96.32;99771.97;5003084;28;20149;-78
2020/12/13 03:49:41;;;;;;;77.93;31.65;;;8.10;99.90;;;8.93;96.38;99769.19;5002706;28;20576;-77
2020/12/13 03:52:07;;;;;;;87.28;34.45;;;8.10;99.90;;;8.92;96.47;99772.34;5001270;28;20030;-79
2020/12/13 03:54:33;;;;;;;85.88;31.38;;;8.10;99.90;;;8.92;96.62;99772.34;5008183;28;20038;-79
2020/12/13 03:56:58;;;;;;;76.80;30.65;;;8.00;99.90;;;8.94;96.46;99779.16;5005328;28;20561;-79
2020/12/13 03:59:24;;;;;;;83.28;32.45;;;8.00;99.90;;;8.90;96.94;99781.06;4998313;28;20034;-79
2020/12/13 04:01:50;;;;;;;88.47;33.65;;;8.00;99.90;;;8.89;96.95;99789.78;4997428;28;20057;-79
2020/12/13 04:04:16;;;;;;;87.78;34.55;;;8.10;99.90;;;8.89;97.05;99795.38;4996328;28;20041;-80
2020/12/13 04:06:42;;;;;;;86.72;33.35;;;8.10;99.90;;;8.91;96.99;99793.81;4995426;28;20475;-78
2020/12/13 04:09:07;;;;;;;93.45;34.88;;;8.00;99.90;;;8.89;97.00;99787.00;4997199;28;20034;-79
2020/12/13 04:11:33;;;;;;;78.18;33.47;;;8.00;99.90;;;8.94;96.71;99803.41;4994851;28;20465;-78
2020/12/13 04:13:59;;;;;;;92.45;35.55;;;8.00;99.90;;;8.90;96.96;99799.75;4996228;28;20030;-80
2020/12/13 04:16:30;;;;;;;86.15;35.05;;;8.00;99.90;;;8.89;97.11;99798.16;4996524;28;20045;-80
2020/12/13 04:18:56;;;;;;;84.85;32.47;;;8.00;99.90;;;8.90;97.06;99802.53;4996723;28;20118;-77
2020/12/13 04:21:22;;;;;;;92.47;34.50;;;8.00;99.90;;;8.83;97.14;99800.41;4996275;28;20077;-81
2020/12/13 04:23:48;;;;;;;89.18;34.05;;;8.00;99.90;;;8.84;97.20;99810.38;4996246;28;20030;-79
2020/12/13 04:26:13;;;;;;;95.70;34.90;;;8.00;99.90;;;8.89;96.87;99800.94;5000907;28;20030;-78
2020/12/13 04:28:39;;;;;;;86.50;34.38;;;8.00;99.90;;;8.87;96.97;99812.44;5005687;28;20034;-81
2020/12/13 04:31:05;;;;;;;91.78;35.15;;;8.10;99.90;;;8.89;96.57;99809.28;5008907;28;20049;-78
2020/12/13 04:33:31;;;;;;;82.53;33.08;;;8.10;99.90;;;8.99;96.42;99814.25;5009390;28;20467;-78
2020/12/13 04:35:57;;;;;;;88.90;34.92;;;8.00;99.90;;;8.92;96.71;99819.69;5006422;28;20046;-80
2020/12/13 04:38:23;;;;;;;89.32;36.20;;;8.10;99.90;;;8.91;96.64;99815.28;5009051;28;20030;-80
2020/12/13 04:40:48;;;;;;;88.47;35.58;;;8.10;99.90;;;8.97;96.26;99817.41;5007077;28;20478;-80
2020/12/13 04:43:14;;;;;;;88.28;33.97;;;8.10;99.90;;;8.99;96.24;99826.19;5007217;28;20038;-79
2020/12/13 04:45:40;;;;;;;93.30;37.25;;;8.10;99.90;;;8.87;96.47;99819.97;5003765;28;20038;-79
2020/12/13 04:48:09;;;;;;;86.75;36.50;;;8.00;99.90;;;8.93;96.28;99826.84;5001668;28;20114;-79
2020/12/13 04:50:39;;;;;;;88.97;34.60;;;8.00;99.90;;;8.89;96.72;99823.22;4999539;28;20027;-80
2020/12/13 04:53:09;;;;;;;88.50;35.67;;;8.00;99.90;;;8.94;96.51;99825.69;4999536;28;20030;-80
2020/12/13 04:56:00;;;;;;;86.55;34.97;;;8.00;99.90;;;8.91;96.42;99823.63;4999843;28;20038;-80
2020/12/13 04:58:28;;;;;;;92.65;35.42;;;8.00;99.90;;;8.94;96.35;99828.47;5002370;28;20065;-80
2020/12/13 05:01:03;;;;;;;80.22;34.70;;;8.00;99.90;;;8.91;96.14;99830.03;5001763;28;20034;-81
2020/12/13 05:03:30;;;;;;;82.75;35.60;;;8.00;99.90;;;8.88;96.53;99838.28;5000807;28;20418;-80
2020/12/13 05:06:03;;;;;;;84.82;35.85;;;8.00;99.90;;;8.84;96.04;99842.97;5003325;28;20038;-80
2020/12/13 05:08:31;;;;;;;80.80;33.33;;;8.00;99.90;;;8.89;96.15;99837.13;5003080;28;20035;-79
2020/12/13 05:10:58;;;;;;;83.05;37.53;;;8.00;99.90;;;8.81;96.50;99835.34;5006315;28;20030;-79
2020/12/13 05:13:24;;;;;;;88.15;36.20;;;8.00;99.90;;;8.77;96.19;99843.63;5008866;28;20402;-80
2020/12/13 05:15:50;;;;;;;84.75;37.05;;;8.00;99.90;;;8.79;96.18;99838.53;5007783;28;20034;-81
2020/12/13 05:18:16;;;;;;;86.63;35.40;;;8.00;99.90;;;8.83;96.02;99850.53;5006570;28;20042;-80
2020/12/13 05:20:45;;;;;;;75.32;34.35;;;8.00;99.90;;;8.77;96.56;99852.00;5005578;28;20040;-80
2020/12/13 05:23:12;;;;;;;85.00;34.75;;;8.00;99.90;;;8.83;96.00;99850.53;5001830;28;20041;-77
2020/12/13 05:25:40;;;;;;;80.97;33.63;;;8.00;99.90;;;8.83;95.65;99856.09;5002927;28;20040;-80
2020/12/13 05:28:12;;;;;;;78.40;33.80;;;8.00;99.90;;;8.89;95.47;99868.53;5001085;28;20501;-80
2020/12/13 05:30:47;;;;;;;78.07;34.05;;;8.00;99.90;;;8.90;95.64;99869.34;5001312;28;20483;-78
2020/12/13 05:36:07;;;;;;;75.80;33.42;;;8.00;99.90;;;8.91;95.36;99885.72;5009809;28;20042;-80
2020/12/13 05:38:37;;;;;;;83.78;34.10;;;8.00;99.90;;;8.95;95.46;99883.00;5011215;28;20034;-80
2020/12/13 05:41:10;;;;;;;79.68;34.83;;;8.00;99.90;;;8.86;95.89;99883.19;5006513;28;20026;-79
2020/12/13 05:54:21;;;;;;;81.10;33.70;;;8.00;99.90;;;8.93;95.46;99902.03;5000952;28;20037;-80
2020/12/13 05:57:00;;;;;;;79.32;35.40;;;8.00;99.90;;;8.89;96.05;99898.41;4999037;28;20031;-80
2020/12/13 05:59:30;;;;;;;79.60;34.75;;;8.00;99.90;;;8.97;95.19;99905.72;4998959;28;20704;-80
2020/12/13 06:02:00;;;;;;;80.65;35.30;;;8.00;99.90;;;8.94;95.35;99898.91;5000110;28;20513;-80
2020/12/13 06:04:33;;;;;;;83.68;35.80;;;8.00;99.90;;;8.85;95.63;99895.53;5000683;28;20477;-79
2020/12/13 06:07:03;;;;;;;76.45;33.67;;;8.00;99.90;;;8.95;95.54;99908.88;4998065;28;20054;-79
2020/12/13 06:09:37;;;;;;;84.65;34.78;;;8.00;99.90;;;8.89;95.52;99907.53;4999732;28;20030;-79
2020/12/13 06:12:12;;;;;;;82.15;35.78;;;8.00;99.90;;;8.89;95.73;99906.75;4999681;28;20320;-78
2020/12/13 06:14:42;;;;;;;77.23;35.00;;;8.00;99.90;;;8.93;95.56;99908.41;5015270;28;20037;-81
2020/12/13 06:17:09;;;;;;;84.40;35.13;;;8.00;99.90;;;8.84;95.72;99918.16;4998788;28;20054;-80
2020/12/13 06:19:39;;;;;;;75.72;34.88;;;8.00;99.90;;;8.85;95.69;99912.25;4999448;28;20034;-80
2020/12/13 06:22:06;;;;;;;79.63;34.67;;;8.00;99.90;;;8.81;95.94;99919.69;4999150;28;20042;-79
2020/12/13 06:24:32;;;;;;;79.45;32.50;;;8.00;99.90;;;8.84;96.07;99912.59;4998325;28;20034;-81
2020/12/13 06:27:00;;;;;;;77.70;33.83;;;8.10;99.90;;;8.90;96.20;99936.19;4997674;28;20146;-80
2020/12/13 06:29:26;;;;;;;77.10;33.05;;;8.00;99.90;;;8.94;95.65;99923.97;4997132;28;20105;-79
2020/12/13 06:31:53;;;;;;;80.22;34.83;;;8.00;99.90;;;8.89;96.00;99929.03;4997393;28;20034;-79
2020/12/13 06:34:19;;;;;;;76.38;33.95;;;8.00;99.90;;;8.93;95.58;99927.09;4995510;28;20041;-79
2020/12/13 06:36:46;;;;;;;77.88;33.05;;;8.00;99.90;;;8.94;95.51;99925.94;5011370;28;20054;-78
2020/12/13 06:39:17;;;;;;;75.00;33.25;;;8.00;99.90;;;8.98;95.20;99929.63;4995073;28;20085;-80
2020/12/13 06:41:49;;;;;;;72.07;33.42;;;8.00;99.90;;;8.89;95.52;99932.59;4995886;28;20030;-79
2020/12/13 06:44:17;;;;;;;70.78;30.95;;;8.00;99.90;;;8.80;96.46;99934.78;4995986;28;20022;-80
2020/12/13 06:46:47;;;;;;;82.57;33.83;;;8.00;99.90;;;8.91;95.87;99935.03;4995499;28;20061;-78
2020/12/13 06:49:18;;;;;;;77.47;33.15;;;8.00;99.90;;;8.76;96.82;99933.91;4995999;28;20026;-78
2020/12/13 06:51:47;;;;;;;75.85;31.27;;;8.00;99.90;;;8.83;96.47;99944.41;4994654;28;20084;-78
2020/12/13 06:54:17;;;;;;;77.07;32.40;;;8.00;99.90;;;8.85;96.42;99942.88;4996347;28;20032;-79
2020/12/13 06:56:46;;;;;;;79.70;31.80;;;8.00;99.90;;;8.95;95.73;99949.84;4996210;28;20038;-79
2020/12/13 06:59:14;;;;;;;72.00;32.75;;;8.00;99.90;;;8.89;95.87;99951.31;4996001;28;20033;-79
2020/12/13 07:01:43;;;;;;;75.57;33.53;;;8.00;99.90;;;8.90;95.66;99955.69;4995914;28;20042;-80
2020/12/13 07:04:43;;;;;;;72.78;32.33;;;8.00;99.90;;;8.91;95.78;99951.75;4996147;28;20034;-79
2020/12/13 07:09:35;;;;;;;79.18;32.55;;;8.00;99.90;;;8.86;96.45;99961.16;4997079;28;20034;-79
2020/12/13 07:12:03;;;;;;;72.57;29.65;;;8.00;99.90;;;8.87;96.48;99957.22;4995351;28;20030;-79
2020/12/13 07:14:32;;;;;;;71.15;32.20;;;8.00;99.90;;;8.89;96.31;99960.44;4995509;28;20030;-80
2020/12/13 07:17:08;;;;;;;73.18;31.27;;;8.00;99.90;;;8.93;96.18;99966.91;4997031;28;20038;-80
2020/12/13 07:19:40;;;;;;;72.75;30.02;;;8.00;99.90;;;8.90;96.49;99977.97;5012182;28;20513;-80
2020/12/13 07:22:13;;;;;;;78.68;31.30;;;8.00;99.90;;;8.83;97.06;99973.03;4995989;28;20162;-80
2020/12/13 07:24:43;;;;;;;78.30;32.47;;;8.00;99.90;;;8.84;97.05;99982.19;4995466;28;20034;-80
2020/12/13 07:27:11;;;;;;;79.72;31.38;;;8.00;99.90;;;8.87;97.19;99970.34;4995298;28;20031;-78
2020/12/13 07:29:37;;;;;;;79.82;32.58;;;8.00;99.90;;;8.90;96.75;99973.19;5000642;28;20042;-78
2020/12/13 07:32:05;;;;;;;87.68;33.20;;;8.00;99.90;;;8.90;96.69;99981.56;4998983;28;20479;-79
2020/12/13 07:34:32;;;;;;;79.22;31.58;;;8.00;99.90;;;8.87;96.79;99979.50;4995759;28;20034;-79
2020/12/13 07:37:01;;;;;;;81.22;32.83;;;8.00;99.90;;;8.91;96.68;99980.41;4996038;28;20030;-76
2020/12/13 07:39:29;;;;;;;76.80;31.48;;;8.00;99.90;;;8.90;97.17;99997.47;4997118;28;20093;-77
2020/12/13 07:41:56;;;;;;;83.57;32.42;;;8.00;99.90;;;8.88;96.95;99992.25;4996866;28;20090;-78
2020/12/13 07:44:22;;;;;;;79.03;31.13;;;8.00;99.90;;;8.94;96.81;99984.44;4997710;28;20398;-77
2020/12/13 07:46:48;;;;;;;77.63;30.58;;;8.00;99.90;;;8.96;96.67;99994.03;4997489;28;20069;-77
2020/12/13 07:49:21;;;;;;;66.13;30.23;;;8.00;99.90;;;8.95;96.69;100003.56;4996124;28;20037;-80
2020/12/13 07:51:53;;;;;;;82.43;31.48;;;8.00;99.90;;;8.92;97.05;100011.84;4997964;28;20390;-80
2020/12/13 07:54:32;;;;;;;69.93;29.65;;;8.00;99.90;;;8.92;97.16;100003.50;4996349;28;20117;-80
2020/12/13 07:57:16;;;;;;;68.53;27.95;;;8.00;99.90;;;8.93;97.02;100005.91;4997639;28;20049;-77
2020/12/13 07:59:42;;;;;;;70.10;28.27;;;8.00;99.90;;;8.90;96.73;100006.63;4996711;28;20034;-77
2020/12/13 08:02:11;;;;;;;63.95;29.13;;;8.00;99.90;;;8.92;96.73;100006.28;4993978;28;20414;-80
2020/12/13 08:04:43;;;;;;;68.13;30.02;;;8.00;99.90;;;8.93;96.84;100021.78;4996314;28;20112;-77
2020/12/13 08:07:12;;;;;;;61.90;27.30;;;8.00;99.90;;;8.92;96.73;100018.22;4995717;28;20104;-80
2020/12/13 08:09:42;;;;;;;65.97;28.85;;;8.00;99.90;;;8.95;96.50;100022.25;4995554;28;20046;-77
2020/12/13 08:12:13;;;;;;;62.13;27.10;;;8.00;99.90;;;8.94;96.59;100018.66;4995899;28;20101;-78
2020/12/13 08:14:40;;;;;;;61.92;27.83;;;8.00;99.90;;;8.91;96.21;100033.31;4995752;28;20262;-78
2020/12/13 08:17:06;;;;;;;69.53;29.52;;;8.00;99.90;;;8.80;96.68;100020.28;4996873;28;20029;-80
2020/12/13 08:19:43;;;;;;;68.63;29.40;;;8.00;99.90;;;8.90;96.28;100037.25;4996460;28;20034;-79
2020/12/13 08:23:18;;;;;;;59.88;26.92;;;8.00;99.90;;;8.87;96.18;100026.84;4995880;28;20090;-79
2020/12/13 08:30:06;;;;;;;61.03;27.58;;;8.00;99.90;;;8.80;96.16;100043.38;4992727;28;20121;-80
2020/12/13 08:32:36;;;;;;;59.65;26.98;;;8.00;99.90;;;8.75;96.75;100046.44;4995151;28;20032;-79
2020/12/13 08:35:17;;;;;;;58.10;26.17;;;8.00;99.90;;;8.79;96.67;100049.31;4995265;28;20084;-79
2020/12/13 08:38:03;;;;;;;57.13;27.40;;;8.00;99.90;;;8.84;96.30;100046.25;4995596;28;20077;-80
2020/12/13 08:40:41;;;;;;;;;;;8.00;99.90;;;8.79;96.56;100052.91;4996669;28;20153;-81
2020/12/13 08:43:17;;;;;;;57.53;26.58;;;8.00;99.90;;;8.76;96.88;100052.81;4995601;28;19917;-78
2020/12/13 08:45:55;;;;;;;54.95;26.73;;;8.00;99.90;;;8.83;96.06;100053.00;4996300;28;20386;-79
2020/12/13 08:48:26;;;;;;;56.95;25.75;;;8.00;99.90;;;8.83;96.18;100055.78;4997680;28;20105;-80
2020/12/13 08:51:11;;;;;;;61.75;28.13;;;8.00;99.90;;;8.86;96.23;100067.00;4997281;28;20026;-81
2020/12/13 08:53:38;;;;;;;62.35;28.45;;;8.00;99.90;;;8.70;96.11;100057.84;4996124;28;20417;-79
2020/12/13 08:56:13;;;;;;;55.88;26.40;;;8.00;99.90;;;8.98;95.24;100069.69;4997945;28;20034;-80
2020/12/13 08:59:01;;;;;;;52.47;26.67;;;8.10;99.90;;;8.96;94.72;100077.59;4997673;28;20114;-80
2020/12/13 09:01:40;;;;;;;53.65;26.85;;;8.10;99.90;;;8.93;94.85;100077.50;4997617;28;20098;-79
2020/12/13 09:04:23;;;;;;;51.83;24.98;;;8.10;99.90;;;9.04;94.35;100094.47;5000279;28;20026;-80
2020/12/13 09:09:47;;;;;;;47.05;26.15;;;8.10;99.90;;;8.96;93.47;100093.47;5007471;28;20042;-79
2020/12/13 09:12:28;;;;;;;52.60;26.73;;;8.10;99.90;;;8.89;94.10;100104.47;5001341;28;20027;-78
2020/12/13 09:14:54;;;;;;;51.55;25.50;;;8.10;99.90;;;8.76;94.47;100112.13;5015126;28;20561;-78
2020/12/13 09:17:24;;;;;;;53.95;27.55;;;8.10;99.90;;;8.80;94.42;100124.13;4998851;28;20045;-78
2020/12/13 09:19:52;;;;;;;47.10;24.63;;;8.00;99.90;;;8.82;94.46;100126.56;4999559;28;20482;-78
2020/12/13 09:22:23;;;;;;;54.13;26.17;;;8.00;99.90;;;8.68;94.02;100131.75;5002354;28;20056;-80
2020/12/13 09:24:50;;;;;;;49.60;25.70;;;8.00;99.90;;;8.78;93.80;100128.44;5000891;28;20057;-78
2020/12/13 09:28:03;;;;;;;53.70;27.17;;;7.90;99.90;;;8.71;93.99;100136.59;5001276;28;20030;-78
2020/12/13 09:30:30;;;;;;;47.00;25.85;;;7.90;99.90;;;8.74;94.00;100145.06;4998665;28;20038;-79
2020/12/13 09:32:56;;;;;;;52.45;28.33;;;7.90;99.90;;;8.72;93.67;100147.41;4997544;28;20081;-78
2020/12/13 09:35:22;;;;;;;50.30;26.52;;;7.90;99.90;;;8.83;93.61;100144.91;4997728;28;20498;-78
2020/12/13 09:37:48;;;;;;;50.17;26.25;;;7.90;99.90;;;8.55;94.08;100141.34;4997442;28;20022;-78
2020/12/13 09:40:14;;;;;;;46.40;25.02;;;7.90;99.90;;;8.69;93.58;100152.88;4998430;28;20030;-78
2020/12/13 09:42:40;;;;;;;43.90;23.02;;;7.90;99.90;;;8.75;92.30;100157.00;4997309;28;20113;-77
2020/12/13 09:45:06;;;;;;;45.97;24.63;;;7.90;99.90;;;8.76;92.24;100161.41;4998117;28;20090;-81
2020/12/13 09:47:32;;;;;;;41.72;22.75;;;7.90;99.90;;;8.73;91.92;100156.56;4997767;28;20454;-78
2020/12/13 09:49:59;;;;;;;37.95;21.85;;;7.90;99.90;;;8.70;91.62;100162.84;4997007;28;20041;-78
2020/12/13 09:52:26;;;;;;;47.33;23.42;;;7.90;99.90;;;8.61;92.18;100165.78;4998926;28;20026;-79
2020/12/13 09:54:52;;;;;;;42.67;22.38;;;7.80;99.90;;;8.67;92.27;100166.34;4996828;28;20483;-78
2020/12/13 09:57:19;;;;;;;43.15;21.55;;;7.80;99.90;;;8.64;92.45;100164.25;4999448;28;20077;-79
2020/12/13 09:59:45;;;;;;;41.13;22.42;;;7.80;99.90;;;8.63;92.10;100166.25;5001158;28;20026;-79
2020/12/13 10:02:11;;;;;;;43.22;20.73;;;7.80;99.90;;;8.45;92.30;100168.53;5000671;28;20049;-81
2020/12/13 10:04:37;;;;;;;36.75;21.05;;;7.80;99.90;;;8.59;92.14;100157.00;4997364;28;20542;-80
2020/12/13 10:09:41;;;;;;;37.05;19.52;;;7.80;99.90;;;8.56;91.27;100159.66;4997298;28;20081;-80
2020/12/13 10:12:07;;;;;;;41.60;20.70;;;7.90;99.90;;;8.59;90.79;100165.34;4996990;28;20054;-79
2020/12/13 10:14:33;;;;;;;40.53;19.25;;;7.80;99.90;;;8.57;90.66;100172.44;4997631;28;20022;-82
2020/12/13 10:17:00;;;;;;;36.22;17.27;;;7.90;99.90;;;8.64;90.44;100170.63;4998801;28;20057;-82
2020/12/13 10:19:26;;;;;;;32.50;16.67;;;7.80;99.90;;;8.52;90.39;100159.56;4997921;28;20076;-81
2020/12/13 10:21:52;;;;;;;37.83;16.63;;;7.80;99.90;;;8.54;90.18;100168.38;4998257;28;20429;-80
2020/12/13 10:24:19;;;;;;;33.38;17.75;;;7.80;99.90;;;8.56;90.32;100168.03;4997728;28;20039;-80
2020/12/13 10:26:45;;;;;;;30.40;17.38;;;7.80;99.90;;;8.57;90.72;100170.47;4996833;28;20409;-79
2020/12/13 10:29:11;;;;;;;41.10;17.80;;;7.80;99.90;;;8.63;90.29;100171.81;4998456;28;20117;-79
2020/12/13 10:31:45;;;;;;;33.63;18.63;;;7.80;99.90;;;8.52;90.20;100169.88;4999925;28;20433;-80
2020/12/13 10:34:14;;;;;;;39.13;18.73;;;7.80;99.90;;;8.41;90.58;100172.41;4999336;28;20086;-80
2020/12/13 10:36:41;;;;;;;38.47;19.48;;;7.80;99.90;;;8.40;91.37;100179.94;4996334;28;20541;-79
2020/12/13 10:39:09;;;;;;;36.72;17.90;;;7.80;99.90;;;8.51;90.73;100187.78;4998045;28;20408;-81
2020/12/13 10:41:38;;;;;;;32.88;17.95;;;7.80;99.90;;;8.52;90.76;100192.97;4996916;28;20026;-78
2020/12/13 10:44:05;;;;;;;40.53;19.77;;;7.80;99.90;;;8.54;90.97;100187.06;5013033;28;20053;-81
2020/12/13 10:46:31;;;;;;;37.63;19.02;;;7.80;99.90;;;8.56;90.73;100201.44;4997002;28;20059;-80
2020/12/13 10:48:57;;;;;;;36.97;18.63;;;7.80;99.90;;;8.59;89.78;100178.44;4996510;28;20125;-79
2020/12/13 10:51:23;;;;;;;35.28;17.05;;;7.80;99.90;;;8.63;89.84;100180.16;4997448;28;20422;-82
2020/12/13 10:53:49;;;;;;;31.15;17.52;;;7.90;99.90;;;8.57;89.49;100184.38;4997119;28;20022;-81